Vila Flor, Brazil
Current Conditions -  °F | °C
As of 2:00 AM on Friday 31 Oct 2014 (Local Time) from SBNT Reporting Station
Scattered Clouds Scattered Clouds  
Wind Chill: 77°   Ceiling: Unl
Heat Index: 79°   Visibility: 6mi
Dew Point: 68°   Wind: 10mph
Humidity: 74%   Direction: 130°SE
Pressure: 29.88"   Gusts: NA
Location:  6.31°S, 35.08°W
Report Text: SBNT 310500Z 13009KT 9999 SCT023 25/20 Q1012
Loading
Personal Weather Stations






























Interactive Weather Map
Tropical Storm Tracking
New forecast layout! Learn more

10-Day Weather Forecast

Advertisements
Track Severe Weather on mobile